sensor_id;sensor_type;location;lat;lon;timestamp;pressure;altitude;pressure_sealevel;temperature;humidity
26531;BME280;14201;43.188;24.160;2023-03-22T00:01:47;99384.22;;;13.88;88.62
26531;BME280;14201;43.188;24.160;2023-03-22T00:04:12;99390.31;;;13.87;88.19
26531;BME280;14201;43.188;24.160;2023-03-22T00:06:38;99389.34;;;13.83;88.72
26531;BME280;14201;43.188;24.160;2023-03-22T00:09:04;99387.56;;;13.81;88.41
26531;BME280;14201;43.188;24.160;2023-03-22T00:11:29;99372.53;;;13.73;88.13
26531;BME280;14201;43.188;24.160;2023-03-22T00:13:55;99383.94;;;13.75;88.30
26531;BME280;14201;43.188;24.160;2023-03-22T00:16:22;99382.91;;;13.70;88.38
26531;BME280;14201;43.188;24.160;2023-03-22T00:18:48;99385.53;;;13.70;88.73
26531;BME280;14201;43.188;24.160;2023-03-22T00:21:15;99385.53;;;13.70;88.90
26531;BME280;14201;43.188;24.160;2023-03-22T00:23:41;99381.31;;;13.75;88.10
26531;BME280;14201;43.188;24.160;2023-03-22T00:26:08;99384.81;;;13.76;87.91
26531;BME280;14201;43.188;24.160;2023-03-22T00:28:34;99381.06;;;13.66;88.22
26531;BME280;14201;43.188;24.160;2023-03-22T00:31:01;99375.78;;;13.63;88.85
26531;BME280;14201;43.188;24.160;2023-03-22T00:33:28;99382.09;;;13.71;88.35
26531;BME280;14201;43.188;24.160;2023-03-22T00:36:00;99374.28;;;13.73;87.27
26531;BME280;14201;43.188;24.160;2023-03-22T00:38:26;99370.66;;;13.68;87.70
26531;BME280;14201;43.188;24.160;2023-03-22T00:41:07;99374.09;;;13.65;87.78
26531;BME280;14201;43.188;24.160;2023-03-22T00:43:33;99371.31;;;13.61;87.85
26531;BME280;14201;43.188;24.160;2023-03-22T00:45:59;99368.50;;;13.53;88.40
26531;BME280;14201;43.188;24.160;2023-03-22T00:48:25;99370.34;;;13.57;87.60
26531;BME280;14201;43.188;24.160;2023-03-22T00:50:50;99366.81;;;13.55;87.99
26531;BME280;14201;43.188;24.160;2023-03-22T00:53:16;99364.41;;;13.63;87.01
26531;BME280;14201;43.188;24.160;2023-03-22T00:55:41;99357.47;;;13.63;87.12
26531;BME280;14201;43.188;24.160;2023-03-22T00:58:07;99367.06;;;13.64;86.68
26531;BME280;14201;43.188;24.160;2023-03-22T01:00:32;99366.91;;;13.58;87.14
26531;BME280;14201;43.188;24.160;2023-03-22T01:02:59;99370.25;;;13.52;87.53
26531;BME280;14201;43.188;24.160;2023-03-22T01:05:32;99363.78;;;13.38;87.95
26531;BME280;14201;43.188;24.160;2023-03-22T01:08:02;99357.84;;;13.44;87.61
26531;BME280;14201;43.188;24.160;2023-03-22T01:10:33;99344.72;;;13.42;88.76
26531;BME280;14201;43.188;24.160;2023-03-22T01:12:59;99353.47;;;13.44;87.79
26531;BME280;14201;43.188;24.160;2023-03-22T01:15:24;99351.63;;;13.40;89.14
26531;BME280;14201;43.188;24.160;2023-03-22T01:17:50;99354.44;;;13.48;89.75
26531;BME280;14201;43.188;24.160;2023-03-22T01:20:16;99349.13;;;13.45;89.99
26531;BME280;14201;43.188;24.160;2023-03-22T01:22:42;99351.84;;;13.48;89.25
26531;BME280;14201;43.188;24.160;2023-03-22T01:25:08;99351.78;;;13.46;89.72
26531;BME280;14201;43.188;24.160;2023-03-22T01:27:34;99354.50;;;13.51;89.81
26531;BME280;14201;43.188;24.160;2023-03-22T01:30:00;99348.41;;;13.50;89.01
26531;BME280;14201;43.188;24.160;2023-03-22T01:32:25;99351.88;;;13.51;88.84
26531;BME280;14201;43.188;24.160;2023-03-22T01:34:51;99349.22;;;13.48;89.40
26531;BME280;14201;43.188;24.160;2023-03-22T01:37:17;99331.28;;;13.30;90.28
26531;BME280;14201;43.188;24.160;2023-03-22T01:39:43;99352.41;;;13.37;90.99
26531;BME280;14201;43.188;24.160;2023-03-22T01:42:15;99348.97;;;13.38;90.96
26531;BME280;14201;43.188;24.160;2023-03-22T01:47:40;99340.19;;;13.36;90.98
26531;BME280;14201;43.188;24.160;2023-03-22T01:50:07;99332.31;;;13.35;90.57
26531;BME280;14201;43.188;24.160;2023-03-22T01:52:34;99336.72;;;13.37;90.22
26531;BME280;14201;43.188;24.160;2023-03-22T01:55:02;99327.88;;;13.32;90.69
26531;BME280;14201;43.188;24.160;2023-03-22T01:57:29;99327.16;;;13.38;90.73
26531;BME280;14201;43.188;24.160;2023-03-22T01:59:58;99321.94;;;13.39;89.58
26531;BME280;14201;43.188;24.160;2023-03-22T02:02:25;99325.34;;;13.35;89.20
26531;BME280;14201;43.188;24.160;2023-03-22T02:04:55;99335.94;;;13.40;87.98
26531;BME280;14201;43.188;24.160;2023-03-22T02:07:22;99331.47;;;13.36;88.34
26531;BME280;14201;43.188;24.160;2023-03-22T02:09:54;99335.59;;;13.29;88.53
26531;BME280;14201;43.188;24.160;2023-03-22T02:18:36;99346.84;;;13.25;89.10
26531;BME280;14201;43.188;24.160;2023-03-22T02:32:18;99351.06;;;12.88;92.84
26531;BME280;14201;43.188;24.160;2023-03-22T02:35:30;99354.06;;;13.02;91.68
26531;BME280;14201;43.188;24.160;2023-03-22T02:38:16;99347.69;;;12.92;92.58
26531;BME280;14201;43.188;24.160;2023-03-22T02:43:48;99348.13;;;12.77;93.98
26531;BME280;14201;43.188;24.160;2023-03-22T02:46:22;99345.31;;;12.70;94.57
26531;BME280;14201;43.188;24.160;2023-03-22T02:49:17;99354.34;;;12.81;94.46
26531;BME280;14201;43.188;24.160;2023-03-22T02:51:57;99358.91;;;12.88;94.42
26531;BME280;14201;43.188;24.160;2023-03-22T02:54:44;99358.25;;;12.95;93.67
26531;BME280;14201;43.188;24.160;2023-03-22T02:57:38;99358.25;;;12.95;93.86
26531;BME280;14201;43.188;24.160;2023-03-22T03:00:07;99360.91;;;12.97;93.81
26531;BME280;14201;43.188;24.160;2023-03-22T03:02:40;99360.91;;;12.97;93.83
26531;BME280;14201;43.188;24.160;2023-03-22T03:05:07;99363.38;;;12.92;94.40
26531;BME280;14201;43.188;24.160;2023-03-22T03:07:34;99363.09;;;12.83;94.32
26531;BME280;14201;43.188;24.160;2023-03-22T03:10:01;99364.97;;;12.87;94.39
26531;BME280;14201;43.188;24.160;2023-03-22T03:12:27;99358.94;;;12.90;94.23
26531;BME280;14201;43.188;24.160;2023-03-22T03:14:54;99358.72;;;12.82;94.28
26531;BME280;14201;43.188;24.160;2023-03-22T03:20:16;99354.53;;;12.89;93.07
26531;BME280;14201;43.188;24.160;2023-03-22T03:23:08;99358.09;;;12.91;93.50
26531;BME280;14201;43.188;24.160;2023-03-22T03:34:18;99359.50;;;12.78;93.54
26531;BME280;14201;43.188;24.160;2023-03-22T03:36:54;99364.88;;;12.84;94.38
26531;BME280;14201;43.188;24.160;2023-03-22T03:39:23;99366.63;;;12.85;94.22
26531;BME280;14201;43.188;24.160;2023-03-22T03:41:51;99369.47;;;12.91;93.70
26531;BME280;14201;43.188;24.160;2023-03-22T03:44:18;99361.06;;;12.73;93.44
26531;BME280;14201;43.188;24.160;2023-03-22T03:46:45;99373.38;;;12.77;95.06
26531;BME280;14201;43.188;24.160;2023-03-22T03:49:11;99377.28;;;12.91;94.25
26531;BME280;14201;43.188;24.160;2023-03-22T03:51:47;99373.13;;;12.98;94.11
26531;BME280;14201;43.188;24.160;2023-03-22T03:54:13;99378.41;;;12.99;93.60
26531;BME280;14201;43.188;24.160;2023-03-22T03:56:39;99375.84;;;13.03;93.75
26531;BME280;14201;43.188;24.160;2023-03-22T03:59:04;99380.03;;;12.96;94.33
26531;BME280;14201;43.188;24.160;2023-03-22T04:01:32;99383.69;;;13.03;93.67
26531;BME280;14201;43.188;24.160;2023-03-22T04:03:58;99386.91;;;12.92;93.30
26531;BME280;14201;43.188;24.160;2023-03-22T04:06:23;99384.22;;;12.89;94.40
26531;BME280;14201;43.188;24.160;2023-03-22T04:08:49;99392.97;;;12.91;94.26
26531;BME280;14201;43.188;24.160;2023-03-22T04:11:18;99394.78;;;12.94;94.77
26531;BME280;14201;43.188;24.160;2023-03-22T04:13:44;99389.78;;;13.02;95.08
26531;BME280;14201;43.188;24.160;2023-03-22T04:16:10;99402.81;;;13.00;95.04
26531;BME280;14201;43.188;24.160;2023-03-22T04:18:36;99398.53;;;13.04;94.14
26531;BME280;14201;43.188;24.160;2023-03-22T04:21:02;99404.88;;;13.12;93.77
26531;BME280;14201;43.188;24.160;2023-03-22T04:23:28;99402.19;;;13.09;93.64
26531;BME280;14201;43.188;24.160;2023-03-22T04:25:53;99414.56;;;13.16;92.90
26531;BME280;14201;43.188;24.160;2023-03-22T04:28:24;99405.63;;;13.08;92.87
26531;BME280;14201;43.188;24.160;2023-03-22T04:30:51;99412.66;;;13.09;92.90
26531;BME280;14201;43.188;24.160;2023-03-22T04:33:18;99410.09;;;13.12;92.25
26531;BME280;14201;43.188;24.160;2023-03-22T04:35:44;99412.66;;;13.10;92.10
26531;BME280;14201;43.188;24.160;2023-03-22T04:38:12;99415.47;;;13.16;91.49
26531;BME280;14201;43.188;24.160;2023-03-22T04:40:38;99414.66;;;13.19;91.18
26531;BME280;14201;43.188;24.160;2023-03-22T04:43:11;99419.94;;;13.20;91.36
26531;BME280;14201;43.188;24.160;2023-03-22T04:45:37;99411.75;;;13.08;91.86
26531;BME280;14201;43.188;24.160;2023-03-22T04:48:03;99425.72;;;13.09;91.91
26531;BME280;14201;43.188;24.160;2023-03-22T04:50:29;99428.41;;;13.12;92.40
26531;BME280;14201;43.188;24.160;2023-03-22T04:52:54;99423.19;;;13.12;92.12
26531;BME280;14201;43.188;24.160;2023-03-22T04:55:20;99433.78;;;13.16;92.41
26531;BME280;14201;43.188;24.160;2023-03-22T04:57:45;99424.06;;;13.12;92.74
26531;BME280;14201;43.188;24.160;2023-03-22T05:00:11;99423.94;;;13.08;92.94
26531;BME280;14201;43.188;24.160;2023-03-22T05:02:37;99420.34;;;13.04;93.47
26531;BME280;14201;43.188;24.160;2023-03-22T05:05:05;99435.09;;;13.02;93.67
26531;BME280;14201;43.188;24.160;2023-03-22T05:07:31;99426.38;;;13.02;93.75
26531;BME280;14201;43.188;24.160;2023-03-22T05:09:56;99429.16;;;13.08;93.71
26531;BME280;14201;43.188;24.160;2023-03-22T05:12:22;99437.00;;;13.08;94.08
26531;BME280;14201;43.188;24.160;2023-03-22T05:14:48;99436.94;;;13.05;94.76
26531;BME280;14201;43.188;24.160;2023-03-22T05:17:13;99434.16;;;13.00;94.25
26531;BME280;14201;43.188;24.160;2023-03-22T05:19:39;99440.56;;;13.10;93.20
26531;BME280;14201;43.188;24.160;2023-03-22T05:22:04;99437.94;;;13.10;92.83
26531;BME280;14201;43.188;24.160;2023-03-22T05:24:30;99455.13;;;13.02;94.23
26531;BME280;14201;43.188;24.160;2023-03-22T05:26:56;99450.72;;;13.00;93.83
26531;BME280;14201;43.188;24.160;2023-03-22T05:29:25;99454.56;;;13.12;93.34
26531;BME280;14201;43.188;24.160;2023-03-22T05:31:51;99454.50;;;13.09;93.93
26531;BME280;14201;43.188;24.160;2023-03-22T05:34:16;99454.28;;;13.03;94.11
26531;BME280;14201;43.188;24.160;2023-03-22T05:36:41;99459.34;;;12.96;95.00
26531;BME280;14201;43.188;24.160;2023-03-22T05:39:07;99461.19;;;13.00;94.32
26531;BME280;14201;43.188;24.160;2023-03-22T05:41:32;99458.69;;;13.04;94.79
26531;BME280;14201;43.188;24.160;2023-03-22T05:43:58;99455.25;;;13.05;94.80
26531;BME280;14201;43.188;24.160;2023-03-22T05:46:24;99460.59;;;13.09;94.02
26531;BME280;14201;43.188;24.160;2023-03-22T05:48:50;99459.78;;;13.12;93.66
26531;BME280;14201;43.188;24.160;2023-03-22T05:51:15;99461.47;;;13.10;94.35
26531;BME280;14201;43.188;24.160;2023-03-22T05:53:45;99468.59;;;13.15;94.57
26531;BME280;14201;43.188;24.160;2023-03-22T05:56:10;99470.41;;;13.16;95.32
26531;BME280;14201;43.188;24.160;2023-03-22T05:58:36;99474.06;;;13.23;94.20
26531;BME280;14201;43.188;24.160;2023-03-22T06:01:05;99473.25;;;13.26;94.27
26531;BME280;14201;43.188;24.160;2023-03-22T06:03:31;99472.59;;;13.31;94.46
26531;BME280;14201;43.188;24.160;2023-03-22T06:05:56;99481.34;;;13.33;94.01
26531;BME280;14201;43.188;24.160;2023-03-22T06:08:22;99487.41;;;13.31;94.07
26531;BME280;14201;43.188;24.160;2023-03-22T06:10:50;99488.44;;;13.37;93.63
26531;BME280;14201;43.188;24.160;2023-03-22T06:13:17;99489.34;;;13.38;93.07
26531;BME280;14201;43.188;24.160;2023-03-22T06:15:42;99492.13;;;13.44;93.35
26531;BME280;14201;43.188;24.160;2023-03-22T06:18:08;99494.75;;;13.44;93.19
26531;BME280;14201;43.188;24.160;2023-03-22T06:20:33;99493.88;;;13.44;92.94
26531;BME280;14201;43.188;24.160;2023-03-22T06:22:59;99495.63;;;13.45;93.14
26531;BME280;14201;43.188;24.160;2023-03-22T06:25:24;99501.34;;;13.31;94.04
26531;BME280;14201;43.188;24.160;2023-03-22T06:27:50;99501.41;;;13.33;94.24
26531;BME280;14201;43.188;24.160;2023-03-22T06:30:15;99502.38;;;13.36;93.86
26531;BME280;14201;43.188;24.160;2023-03-22T06:32:40;99499.81;;;13.38;94.11
26531;BME280;14201;43.188;24.160;2023-03-22T06:35:06;99502.56;;;13.43;93.85
26531;BME280;14201;43.188;24.160;2023-03-22T06:37:32;99496.72;;;13.51;92.81
26531;BME280;14201;43.188;24.160;2023-03-22T06:39:57;99507.06;;;13.48;93.00
26531;BME280;14201;43.188;24.160;2023-03-22T06:42:22;99504.41;;;13.47;93.07
26531;BME280;14201;43.188;24.160;2023-03-22T06:44:48;99506.97;;;13.45;93.25
26531;BME280;14201;43.188;24.160;2023-03-22T06:47:13;99510.44;;;13.44;93.85
26531;BME280;14201;43.188;24.160;2023-03-22T06:49:39;99506.97;;;13.45;94.69
26531;BME280;14201;43.188;24.160;2023-03-22T06:52:04;99517.53;;;13.48;94.15
26531;BME280;14201;43.188;24.160;2023-03-22T06:54:30;99517.50;;;13.47;94.30
26531;BME280;14201;43.188;24.160;2023-03-22T06:56:55;99520.22;;;13.50;93.68
26531;BME280;14201;43.188;24.160;2023-03-22T06:59:20;99529.06;;;13.55;93.97
26531;BME280;14201;43.188;24.160;2023-03-22T07:01:46;99523.91;;;13.58;93.03
26531;BME280;14201;43.188;24.160;2023-03-22T07:04:12;99522.13;;;13.57;93.12
26531;BME280;14201;43.188;24.160;2023-03-22T07:06:37;99521.22;;;13.55;93.14
26531;BME280;14201;43.188;24.160;2023-03-22T07:09:03;99532.53;;;13.54;93.66
26531;BME280;14201;43.188;24.160;2023-03-22T07:11:28;99535.41;;;13.63;92.04
26531;BME280;14201;43.188;24.160;2023-03-22T07:13:54;99532.88;;;13.66;92.11
26531;BME280;14201;43.188;24.160;2023-03-22T07:16:20;99533.00;;;13.71;91.31
26531;BME280;14201;43.188;24.160;2023-03-22T07:18:45;99534.50;;;13.63;91.93
26531;BME280;14201;43.188;24.160;2023-03-22T07:21:12;99540.72;;;13.66;91.42
26531;BME280;14201;43.188;24.160;2023-03-22T07:23:37;99535.28;;;13.58;92.11
26531;BME280;14201;43.188;24.160;2023-03-22T07:26:03;99540.88;;;13.72;91.05
26531;BME280;14201;43.188;24.160;2023-03-22T07:28:28;99551.41;;;13.74;91.25
26531;BME280;14201;43.188;24.160;2023-03-22T07:31:04;99543.66;;;13.77;90.22
26531;BME280;14201;43.188;24.160;2023-03-22T07:33:30;99544.31;;;13.70;90.31
26531;BME280;14201;43.188;24.160;2023-03-22T07:35:55;99547.78;;;13.69;91.50
26531;BME280;14201;43.188;24.160;2023-03-22T07:38:21;99553.81;;;13.66;91.16
26531;BME280;14201;43.188;24.160;2023-03-22T07:40:46;99558.97;;;13.63;91.37
26531;BME280;14201;43.188;24.160;2023-03-22T07:43:11;99554.50;;;13.59;91.63
26531;BME280;14201;43.188;24.160;2023-03-22T07:45:37;99557.06;;;13.57;90.85
26531;BME280;14201;43.188;24.160;2023-03-22T07:48:03;99553.59;;;13.58;90.50
26531;BME280;14201;43.188;24.160;2023-03-22T07:50:28;99551.78;;;13.56;90.51
26531;BME280;14201;43.188;24.160;2023-03-22T07:52:53;99560.47;;;13.55;90.90
26531;BME280;14201;43.188;24.160;2023-03-22T07:55:19;99557.94;;;13.58;91.39
26531;BME280;14201;43.188;24.160;2023-03-22T07:57:44;99553.75;;;13.63;92.17
26531;BME280;14201;43.188;24.160;2023-03-22T08:00:10;99550.09;;;13.58;92.23
26531;BME280;14201;43.188;24.160;2023-03-22T08:02:36;99558.81;;;13.58;91.13
26531;BME280;14201;43.188;24.160;2023-03-22T08:05:04;99552.81;;;13.63;91.67
26531;BME280;14201;43.188;24.160;2023-03-22T08:07:29;99551.38;;;13.42;91.21
26531;BME280;14201;43.188;24.160;2023-03-22T08:09:55;99553.91;;;13.39;91.63
26531;BME280;14201;43.188;24.160;2023-03-22T08:12:21;99558.69;;;13.25;93.86
26531;BME280;14201;43.188;24.160;2023-03-22T08:14:47;99557.06;;;13.29;93.27
26531;BME280;14201;43.188;24.160;2023-03-22T08:17:15;99553.84;;;13.37;92.59
26531;BME280;14201;43.188;24.160;2023-03-22T08:19:41;99560.75;;;13.35;92.98
26531;BME280;14201;43.188;24.160;2023-03-22T08:22:06;99552.25;;;13.43;92.09
26531;BME280;14201;43.188;24.160;2023-03-22T08:24:32;99557.63;;;13.47;91.50
26531;BME280;14201;43.188;24.160;2023-03-22T08:26:57;99556.69;;;13.45;92.57
26531;BME280;14201;43.188;24.160;2023-03-22T08:29:23;99561.84;;;13.42;92.90
26531;BME280;14201;43.188;24.160;2023-03-22T08:31:49;99556.66;;;13.44;92.91
26531;BME280;14201;43.188;24.160;2023-03-22T08:34:14;99555.97;;;13.49;92.71
26531;BME280;14201;43.188;24.160;2023-03-22T08:36:40;99560.38;;;13.52;92.42
26531;BME280;14201;43.188;24.160;2023-03-22T08:39:06;99556.13;;;13.55;92.49
26531;BME280;14201;43.188;24.160;2023-03-22T08:41:32;99557.00;;;13.56;92.21
26531;BME280;14201;43.188;24.160;2023-03-22T08:43:58;99558.81;;;13.58;92.02
26531;BME280;14201;43.188;24.160;2023-03-22T08:46:23;99562.41;;;13.62;91.84
26531;BME280;14201;43.188;24.160;2023-03-22T08:48:48;99562.56;;;13.67;92.38
26531;BME280;14201;43.188;24.160;2023-03-22T08:51:17;99565.19;;;13.67;92.34
26531;BME280;14201;43.188;24.160;2023-03-22T08:53:43;99562.53;;;13.65;92.16
26531;BME280;14201;43.188;24.160;2023-03-22T08:56:09;99568.75;;;13.70;92.37
26531;BME280;14201;43.188;24.160;2023-03-22T08:58:34;99575.81;;;13.73;92.14
26531;BME280;14201;43.188;24.160;2023-03-22T09:01:00;99571.47;;;13.73;91.36
26531;BME280;14201;43.188;24.160;2023-03-22T09:03:25;99576.81;;;13.78;90.39
26531;BME280;14201;43.188;24.160;2023-03-22T09:05:51;99574.19;;;13.76;89.42
26531;BME280;14201;43.188;24.160;2023-03-22T09:08:16;99577.63;;;13.75;89.01
26531;BME280;14201;43.188;24.160;2023-03-22T09:10:42;99572.28;;;13.71;88.39
26531;BME280;14201;43.188;24.160;2023-03-22T09:13:08;99575.44;;;13.61;88.53
26531;BME280;14201;43.188;24.160;2023-03-22T09:15:33;99578.81;;;13.56;88.38
26531;BME280;14201;43.188;24.160;2023-03-22T09:17:58;99577.78;;;13.50;88.22
26531;BME280;14201;43.188;24.160;2023-03-22T09:20:24;99572.44;;;13.47;88.33
26531;BME280;14201;43.188;24.160;2023-03-22T09:22:50;99570.69;;;13.46;88.11
26531;BME280;14201;43.188;24.160;2023-03-22T09:25:16;99579.06;;;13.35;89.18
26531;BME280;14201;43.188;24.160;2023-03-22T09:27:41;99577.50;;;13.41;88.88
26531;BME280;14201;43.188;24.160;2023-03-22T09:30:06;99579.00;;;13.32;88.45
26531;BME280;14201;43.188;24.160;2023-03-22T09:32:32;99566.75;;;13.31;89.33
26531;BME280;14201;43.188;24.160;2023-03-22T09:34:57;99570.94;;;12.97;91.28
26531;BME280;14201;43.188;24.160;2023-03-22T09:37:23;99573.59;;;12.72;93.38
26531;BME280;14201;43.188;24.160;2023-03-22T09:39:54;99568.16;;;12.66;95.47
26531;BME280;14201;43.188;24.160;2023-03-22T09:42:24;99569.78;;;12.35;97.12
26531;BME280;14201;43.188;24.160;2023-03-22T09:44:52;99568.03;;;12.35;98.33
26531;BME280;14201;43.188;24.160;2023-03-22T09:47:20;99565.25;;;12.31;99.08
26531;BME280;14201;43.188;24.160;2023-03-22T09:49:49;99566.72;;;12.23;100.00
26531;BME280;14201;43.188;24.160;2023-03-22T09:52:19;99561.84;;;12.59;99.12
26531;BME280;14201;43.188;24.160;2023-03-22T09:54:45;99566.00;;;12.52;97.53
26531;BME280;14201;43.188;24.160;2023-03-22T09:59:43;99567.38;;;12.41;97.59
26531;BME280;14201;43.188;24.160;2023-03-22T10:03:00;99564.41;;;12.57;96.64
26531;BME280;14201;43.188;24.160;2023-03-22T10:10:18;99574.09;;;12.87;94.23
26531;BME280;14201;43.188;24.160;2023-03-22T10:15:15;99576.03;;;12.94;95.38
26531;BME280;14201;43.188;24.160;2023-03-22T10:17:43;99572.59;;;12.95;94.56
26531;BME280;14201;43.188;24.160;2023-03-22T10:20:21;99571.63;;;12.92;94.67
26531;BME280;14201;43.188;24.160;2023-03-22T10:22:47;99571.00;;;13.00;94.29
26531;BME280;14201;43.188;24.160;2023-03-22T10:25:18;99576.00;;;12.93;94.23
26531;BME280;14201;43.188;24.160;2023-03-22T10:27:45;99569.06;;;12.93;95.18
26531;BME280;14201;43.188;24.160;2023-03-22T10:32:44;99570.81;;;12.94;94.50
26531;BME280;14201;43.188;24.160;2023-03-22T10:35:14;99572.13;;;12.80;94.27
26531;BME280;14201;43.188;24.160;2023-03-22T10:37:39;99571.25;;;12.79;95.45
26531;BME280;14201;43.188;24.160;2023-03-22T10:40:05;99570.13;;;12.73;97.40
26531;BME280;14201;43.188;24.160;2023-03-22T10:42:31;99567.75;;;12.53;98.66
26531;BME280;14201;43.188;24.160;2023-03-22T10:45:00;99576.72;;;12.61;100.00
26531;BME280;14201;43.188;24.160;2023-03-22T10:50:28;99573.53;;;12.43;99.44
26531;BME280;14201;43.188;24.160;2023-03-22T10:52:56;99566.75;;;12.50;99.40
26531;BME280;14201;43.188;24.160;2023-03-22T10:55:23;99565.03;;;12.50;97.80
26531;BME280;14201;43.188;24.160;2023-03-22T10:57:53;99565.19;;;12.55;97.54
26531;BME280;14201;43.188;24.160;2023-03-22T11:00:20;99557.44;;;12.56;97.74
26531;BME280;14201;43.188;24.160;2023-03-22T11:02:49;99564.59;;;12.64;97.81
26531;BME280;14201;43.188;24.160;2023-03-22T11:05:20;99566.28;;;12.61;98.92
26531;BME280;14201;43.188;24.160;2023-03-22T11:07:47;99567.56;;;12.74;98.22
26531;BME280;14201;43.188;24.160;2023-03-22T11:10:26;99568.25;;;12.69;97.50
26531;BME280;14201;43.188;24.160;2023-03-22T11:12:53;99564.28;;;12.80;98.07
26531;BME280;14201;43.188;24.160;2023-03-22T11:15:29;99560.91;;;12.84;97.84
26531;BME280;14201;43.188;24.160;2023-03-22T11:18:03;99554.13;;;12.89;97.40
26531;BME280;14201;43.188;24.160;2023-03-22T11:20:29;99556.88;;;12.94;96.79
26531;BME280;14201;43.188;24.160;2023-03-22T11:22:55;99557.22;;;13.05;95.86
26531;BME280;14201;43.188;24.160;2023-03-22T11:25:34;99553.19;;;13.16;94.53
26531;BME280;14201;43.188;24.160;2023-03-22T11:30:28;99550.66;;;13.19;95.19
26531;BME280;14201;43.188;24.160;2023-03-22T11:35:33;99556.06;;;13.25;95.68
26531;BME280;14201;43.188;24.160;2023-03-22T11:37:59;99543.16;;;13.30;94.46
26531;BME280;14201;43.188;24.160;2023-03-22T11:40:29;99547.03;;;13.43;94.95
26531;BME280;14201;43.188;24.160;2023-03-22T11:42:57;99544.31;;;13.39;95.09
26531;BME280;14201;43.188;24.160;2023-03-22T11:45:30;99544.31;;;13.39;95.06
26531;BME280;14201;43.188;24.160;2023-03-22T11:48:00;99542.44;;;13.35;96.17
26531;BME280;14201;43.188;24.160;2023-03-22T11:50:30;99545.50;;;13.22;96.83
26531;BME280;14201;43.188;24.160;2023-03-22T11:52:56;99543.34;;;13.07;98.12
26531;BME280;14201;43.188;24.160;2023-03-22T11:55:25;99543.03;;;12.98;98.21
26531;BME280;14201;43.188;24.160;2023-03-22T11:57:54;99542.69;;;13.14;97.45
26531;BME280;14201;43.188;24.160;2023-03-22T12:00:23;99542.06;;;13.23;97.30
26531;BME280;14201;43.188;24.160;2023-03-22T12:03:01;99546.19;;;13.15;98.48
26531;BME280;14201;43.188;24.160;2023-03-22T12:05:29;99545.72;;;13.28;97.28
26531;BME280;14201;43.188;24.160;2023-03-22T12:08:08;99545.81;;;13.31;97.23
26531;BME280;14201;43.188;24.160;2023-03-22T12:10:38;99547.94;;;13.16;98.31
26531;BME280;14201;43.188;24.160;2023-03-22T12:13:13;99549.56;;;13.12;98.23
26531;BME280;14201;43.188;24.160;2023-03-22T12:15:42;99545.56;;;12.95;100.00
26531;BME280;14201;43.188;24.160;2023-03-22T12:23:16;99546.47;;;13.24;98.03
26531;BME280;14201;43.188;24.160;2023-03-22T12:25:46;99544.06;;;13.30;97.86
26531;BME280;14201;43.188;24.160;2023-03-22T12:28:14;99536.13;;;13.29;97.88
26531;BME280;14201;43.188;24.160;2023-03-22T12:30:42;99541.63;;;13.36;97.15
26531;BME280;14201;43.188;24.160;2023-03-22T12:35:35;99545.13;;;13.37;96.72
26531;BME280;14201;43.188;24.160;2023-03-22T12:40:37;99548.63;;;13.37;97.55
26531;BME280;14201;43.188;24.160;2023-03-22T12:43:08;99545.16;;;13.38;98.62
26531;BME280;14201;43.188;24.160;2023-03-22T12:45:38;99553.25;;;13.46;97.64
26531;BME280;14201;43.188;24.160;2023-03-22T12:48:06;99546.19;;;13.44;97.17
26531;BME280;14201;43.188;24.160;2023-03-22T12:50:42;99542.69;;;13.43;97.38
26531;BME280;14201;43.188;24.160;2023-03-22T12:53:14;99547.03;;;13.43;96.92
26531;BME280;14201;43.188;24.160;2023-03-22T12:55:40;99547.09;;;13.44;96.31
26531;BME280;14201;43.188;24.160;2023-03-22T12:58:07;99546.84;;;13.36;96.97
26531;BME280;14201;43.188;24.160;2023-03-22T13:00:53;99547.69;;;13.35;97.32
26531;BME280;14201;43.188;24.160;2023-03-22T13:03:23;99550.28;;;13.34;98.44
26531;BME280;14201;43.188;24.160;2023-03-22T13:05:58;99551.78;;;13.27;97.42
26531;BME280;14201;43.188;24.160;2023-03-22T13:08:23;99550.09;;;13.29;97.37
26531;BME280;14201;43.188;24.160;2023-03-22T13:11:02;99551.06;;;13.31;97.80
26531;BME280;14201;43.188;24.160;2023-03-22T13:18:29;99549.53;;;13.39;98.21
26531;BME280;14201;43.188;24.160;2023-03-22T13:23:33;99544.63;;;13.50;97.38
26531;BME280;14201;43.188;24.160;2023-03-22T13:26:00;99548.78;;;13.42;96.55
26531;BME280;14201;43.188;24.160;2023-03-22T13:28:26;99542.56;;;13.38;96.55
26531;BME280;14201;43.188;24.160;2023-03-22T13:30:54;99544.94;;;13.31;97.28
26531;BME280;14201;43.188;24.160;2023-03-22T13:33:31;99550.84;;;13.25;97.62
26531;BME280;14201;43.188;24.160;2023-03-22T13:38:42;99538.69;;;13.27;98.47
26531;BME280;14201;43.188;24.160;2023-03-22T13:41:33;99540.38;;;13.25;98.34
26531;BME280;14201;43.188;24.160;2023-03-22T13:43:59;99540.50;;;13.28;99.02
26531;BME280;14201;43.188;24.160;2023-03-22T13:46:46;99538.63;;;13.24;98.61
26531;BME280;14201;43.188;24.160;2023-03-22T13:49:23;99541.88;;;13.17;98.94
26531;BME280;14201;43.188;24.160;2023-03-22T13:51:52;99540.66;;;13.06;99.80
26531;BME280;14201;43.188;24.160;2023-03-22T13:54:19;99542.72;;;13.16;99.04
26531;BME280;14201;43.188;24.160;2023-03-22T13:56:49;99542.00;;;13.22;97.66
26531;BME280;14201;43.188;24.160;2023-03-22T14:01:55;99540.38;;;13.25;97.97
26531;BME280;14201;43.188;24.160;2023-03-22T14:04:27;99541.25;;;13.24;97.69
26531;BME280;14201;43.188;24.160;2023-03-22T14:06:58;99545.44;;;13.19;97.84
26531;BME280;14201;43.188;24.160;2023-03-22T14:09:31;99548.84;;;13.16;97.91
26531;BME280;14201;43.188;24.160;2023-03-22T14:14:34;99550.66;;;13.19;98.12
26531;BME280;14201;43.188;24.160;2023-03-22T14:17:02;99550.72;;;13.22;97.60